Time;durP1;ratioP1;P1;durP2;ratioP2;P2;SDS_P1;SDS_P2;PMS_P1;PMS_P2;Temp;Humidity;BMP_temperature;BMP_pressure;BME280_temperature;BME280_humidity;BME280_pressure;Samples;Min_cycle;Max_cycle;Signal;HPM_P1;HPM_P2
2021/12/10 00:01:28;;;;;;;7.70;4.27;;;;;;;3.34;99.11;98666.53;4971981;28;20333;-60
2021/12/10 00:03:56;;;;;;;8.97;4.20;;;;;;;3.22;98.49;98674.72;4991968;28;20198;-60
2021/12/10 00:06:33;;;;;;;7.27;4.27;;;;;;;3.21;98.51;98658.66;4992928;28;20181;-60
2021/12/10 00:09:14;;;;;;;5.53;4.20;;;;;;;3.26;98.73;98658.44;4992767;28;20179;-60
2021/12/10 00:11:48;;;;;;;8.13;4.77;;;;;;;3.32;98.12;98642.09;4982023;28;20651;-60
2021/12/10 00:14:15;;;;;;;11.07;4.17;;;;;;;3.46;98.07;98646.50;4992552;28;20281;-60
2021/12/10 00:16:42;;;;;;;7.47;4.13;;;;;;;3.49;97.38;98634.44;4977710;28;21015;-60
2021/12/10 00:21:47;;;;;;;7.17;4.37;;;;;;;3.44;97.65;98618.59;4982105;28;20231;-60
2021/12/10 00:24:13;;;;;;;10.17;4.20;;;;;;;3.55;97.33;98618.09;4992482;28;20172;-60
2021/12/10 00:26:39;;;;;;;6.87;4.10;;;;;;;3.62;97.01;98610.97;4992598;28;20238;-60
2021/12/10 00:29:06;;;;;;;6.20;4.00;;;;;;;3.48;97.21;98612.47;4992087;28;20183;-60
2021/12/10 00:31:46;;;;;;;8.03;3.70;;;;;;;3.61;97.13;98609.31;4961736;28;20659;-60
2021/12/10 00:34:26;;;;;;;9.93;4.17;;;;;;;3.65;96.34;98614.19;4992162;28;20182;-60
2021/12/10 00:36:54;;;;;;;9.27;4.83;;;;;;;3.61;96.43;98599.16;4992523;28;20209;-60
2021/12/10 00:39:24;;;;;;;10.40;4.17;;;;;;;3.33;96.92;98598.78;4992029;28;20659;-60
2021/12/10 00:41:50;;;;;;;8.80;4.43;;;;;;;3.57;96.66;98595.13;4981060;28;20230;-61
2021/12/10 00:44:16;;;;;;;11.53;4.07;;;;;;;3.38;96.72;98589.22;4992088;28;20213;-60
2021/12/10 00:46:41;;;;;;;11.23;3.93;;;;;;;3.28;97.00;98593.13;4992097;28;20215;-60
2021/12/10 00:49:08;;;;;;;8.97;4.70;;;;;;;3.37;97.34;98592.69;4974466;28;20177;-61
2021/12/10 00:51:35;;;;;;;12.53;4.27;;;;;;;3.32;96.87;98578.53;4981237;28;20236;-60
2021/12/10 00:54:01;;;;;;;13.77;4.53;;;;;;;3.41;96.79;98573.00;4991616;28;20189;-60
2021/12/10 00:56:26;;;;;;;8.47;3.90;;;;;;;3.42;96.44;98566.19;4991993;28;20221;-60
2021/12/10 00:58:51;;;;;;;12.93;4.40;;;;;;;3.45;95.61;98571.97;5001591;28;20198;-60
2021/12/10 01:01:24;;;;;;;7.93;3.83;;;;;;;3.32;94.38;98570.91;5000332;28;20273;-60
2021/12/10 01:03:54;;;;;;;7.10;3.50;;;;;;;3.20;94.23;98557.06;5011143;28;20690;-61
2021/12/10 01:06:23;;;;;;;12.37;3.73;;;;;;;3.37;93.69;98567.25;4993549;28;20675;-60
2021/12/10 01:08:54;;;;;;;12.87;4.13;;;;;;;3.46;93.07;98557.50;5011504;28;20540;-60
2021/12/10 01:11:29;;;;;;;15.67;4.20;;;;;;;3.58;92.33;98553.53;4999919;28;20226;-61
2021/12/10 01:14:02;;;;;;;10.40;4.00;;;;;;;3.62;91.97;98547.41;5011126;28;20244;-60
2021/12/10 01:25:04;;;;;;;5.93;3.37;;;;;;;3.81;91.06;98509.13;4991697;28;20234;-61
2021/12/10 01:27:33;;;;;;;11.10;4.27;;;;;;;3.87;90.48;98499.44;4990128;28;20194;-61
2021/12/10 01:30:21;;;;;;;12.67;3.80;;;;;;;3.82;90.06;98501.41;4991489;28;20190;-61
2021/12/10 01:32:51;;;;;;;5.70;3.20;;;;;;;3.60;90.36;98496.63;4964515;28;20674;-61
2021/12/10 01:35:21;;;;;;;6.30;3.30;;;;;;;3.29;91.76;98492.28;4991440;28;20175;-61
2021/12/10 01:37:51;;;;;;;11.27;3.63;;;;;;;3.42;92.63;98498.38;4991263;28;20183;-61
2021/12/10 01:40:20;;;;;;;10.07;3.60;;;;;;;3.44;93.07;98491.50;4980808;28;20516;-61
2021/12/10 01:42:50;;;;;;;7.70;3.20;;;;;;;3.61;92.24;98482.19;4990237;28;20635;-60
2021/12/10 01:45:22;;;;;;;11.83;3.40;;;;;;;3.65;91.63;98476.06;4991546;28;20179;-60
2021/12/10 01:47:59;;;;;;;14.50;3.47;;;;;;;3.35;91.94;98477.53;4991373;28;20266;-60
2021/12/10 01:50:28;;;;;;;13.33;3.40;;;;;;;3.28;92.86;98475.41;4980773;28;20235;-60
2021/12/10 01:52:56;;;;;;;11.53;3.60;;;;;;;3.38;93.43;98464.66;4990550;28;20178;-60
2021/12/10 01:55:23;;;;;;;11.27;3.77;;;;;;;3.38;93.61;98469.75;4991471;28;20183;-60
2021/12/10 01:57:50;;;;;;;7.63;3.47;;;;;;;3.32;93.88;98464.16;4992400;28;20198;-61
2021/12/10 02:00:20;;;;;;;10.83;3.80;;;;;;;3.29;94.16;98466.88;4980839;28;20278;-60
2021/12/10 02:02:47;;;;;;;7.43;3.20;;;;;;;3.25;94.32;98466.22;4985152;28;20210;-60
2021/12/10 02:05:13;;;;;;;8.60;3.00;;;;;;;3.17;94.99;98470.84;4978717;28;20184;-60
2021/12/10 02:07:39;;;;;;;9.20;3.23;;;;;;;3.19;95.34;98464.78;4971932;28;20259;-60
2021/12/10 02:10:06;;;;;;;11.73;3.33;;;;;;;3.34;94.96;98457.28;4961606;28;20662;-60
2021/12/10 02:12:32;;;;;;;9.03;2.80;;;;;;;3.19;94.83;98443.66;4970416;28;20184;-60
2021/12/10 02:15:03;;;;;;;10.73;3.70;;;;;;;3.21;94.67;98436.75;4974523;28;20185;-60
2021/12/10 02:17:37;;;;;;;10.67;2.93;;;;;;;3.26;93.97;98432.25;5002072;28;20252;-60
2021/12/10 02:20:10;;;;;;;9.00;2.80;;;;;;;3.39;92.83;98419.75;4997419;28;20582;-61
2021/12/10 02:22:35;;;;;;;10.27;2.70;;;;;;;3.26;92.03;98411.13;5010458;28;20209;-60
2021/12/10 02:25:01;;;;;;;6.67;2.83;;;;;;;3.34;90.88;98409.00;5014266;28;20189;-60
2021/12/10 02:27:27;;;;;;;7.93;2.63;;;;;;;3.31;91.56;98398.97;5014314;28;20706;-60
2021/12/10 02:29:52;;;;;;;7.67;2.67;;;;;;;3.29;90.38;98395.72;5014148;28;20191;-60
2021/12/10 02:32:17;;;;;;;8.27;2.80;;;;;;;3.25;90.19;98400.13;5003191;28;20251;-60
2021/12/10 02:34:44;;;;;;;15.73;2.97;;;;;;;3.31;88.96;98386.28;5014153;28;20232;-60
2021/12/10 02:37:11;;;;;;;4.27;2.27;;;;;;;3.13;88.42;98386.34;5010051;28;20181;-60
2021/12/10 02:39:36;;;;;;;7.67;2.40;;;;;;;3.26;88.74;98383.16;4991530;28;20196;-60
2021/12/10 02:42:02;;;;;;;8.30;2.77;;;;;;;3.15;88.94;98373.53;4975279;28;20325;-60
2021/12/10 02:44:31;;;;;;;7.70;3.00;;;;;;;3.19;88.89;98372.50;4982974;28;20207;-60
2021/12/10 02:46:57;;;;;;;7.40;2.67;;;;;;;3.28;88.60;98372.00;4985670;28;20178;-60
2021/12/10 02:49:23;;;;;;;7.10;2.50;;;;;;;3.38;88.72;98369.81;4993162;28;20274;-60
2021/12/10 02:51:49;;;;;;;6.97;2.70;;;;;;;3.44;88.54;98369.50;4977180;28;20220;-60
2021/12/10 02:54:21;;;;;;;7.93;2.83;;;;;;;3.44;87.93;98361.06;4986472;28;20700;-60
2021/12/10 02:56:47;;;;;;;5.57;2.50;;;;;;;3.18;87.55;98360.69;4993415;28;20242;-60
2021/12/10 02:59:12;;;;;;;9.33;2.50;;;;;;;3.26;88.04;98360.28;4992495;28;20181;-60
2021/12/10 03:01:42;;;;;;;7.83;2.60;;;;;;;3.21;88.42;98357.97;4976770;28;20894;-60
2021/12/10 03:04:09;;;;;;;10.57;3.60;;;;;;;2.99;89.12;98350.66;4992258;28;20194;-60
2021/12/10 03:06:38;;;;;;;8.37;2.77;;;;;;;2.97;90.21;98343.13;4991461;28;20175;-60
2021/12/10 03:09:04;;;;;;;4.57;2.73;;;;;;;2.91;90.71;98338.34;4985412;28;20624;-60
2021/12/10 03:11:35;;;;;;;11.17;2.80;;;;;;;2.84;90.91;98334.47;4995087;28;20260;-60
2021/12/10 03:14:08;;;;;;;6.00;2.37;;;;;;;2.86;92.14;98327.63;4997247;28;20182;-60
2021/12/10 03:16:33;;;;;;;7.17;2.63;;;;;;;2.71;92.28;98321.59;4990325;28;20566;-60
2021/12/10 03:18:59;;;;;;;8.30;2.30;;;;;;;2.73;92.60;98317.28;4974061;28;20179;-60
2021/12/10 03:21:25;;;;;;;8.27;2.30;;;;;;;2.79;92.61;98316.97;4963572;28;20307;-60
2021/12/10 03:23:50;;;;;;;10.07;2.57;;;;;;;2.76;92.42;98304.41;4973948;28;20178;-60
2021/12/10 03:26:19;;;;;;;7.43;2.47;;;;;;;2.70;93.14;98295.38;4974166;28;20183;-60
2021/12/10 03:28:47;;;;;;;7.93;2.97;;;;;;;2.64;93.26;98285.56;4974197;28;20172;-61
2021/12/10 03:31:12;;;;;;;9.30;2.53;;;;;;;2.61;93.50;98280.63;4963598;28;20704;-60
2021/12/10 03:33:41;;;;;;;7.90;2.10;;;;;;;2.67;93.55;98276.97;4972988;28;20187;-60
2021/12/10 03:36:07;;;;;;;8.67;2.87;;;;;;;2.54;94.28;98274.22;4974074;28;20249;-60
2021/12/10 03:38:35;;;;;;;7.43;2.57;;;;;;;2.22;95.83;98266.50;4974054;28;20201;-60
2021/12/10 03:41:01;;;;;;;7.33;2.60;;;;;;;2.22;96.51;98266.50;4963289;28;20234;-60
2021/12/10 03:43:27;;;;;;;9.83;2.70;;;;;;;2.05;97.57;98270.69;4973302;28;20205;-60
2021/12/10 03:45:56;;;;;;;6.63;2.60;;;;;;;2.02;99.13;98267.47;4973954;28;20266;-61
2021/12/10 03:48:30;;;;;;;5.13;2.70;;;;;;;1.80;100.00;98266.00;4973779;28;20269;-60
2021/12/10 03:50:58;;;;;;;7.83;3.23;;;;;;;1.75;100.00;98265.41;4963240;28;20288;-60
2021/12/10 03:53:24;;;;;;;7.97;3.53;;;;;;;1.61;100.00;98258.44;4973001;28;20229;-60
2021/12/10 03:55:50;;;;;;;11.07;4.13;;;;;;;1.61;100.00;98263.50;4973641;28;20664;-60
2021/12/10 03:58:16;;;;;;;11.00;4.57;;;;;;;1.58;100.00;98261.13;4982699;28;20187;-60
2021/12/10 04:00:49;;;;;;;7.73;4.67;;;;;;;1.43;100.00;98258.41;4991691;28;20228;-60
2021/12/10 04:03:17;;;;;;;11.93;4.47;;;;;;;1.19;100.00;98252.78;5011654;28;20276;-60
2021/12/10 04:05:43;;;;;;;9.90;4.67;;;;;;;1.33;100.00;98253.84;5012835;28;20175;-60
2021/12/10 04:08:09;;;;;;;10.97;4.60;;;;;;;1.07;100.00;98261.75;5012489;28;20232;-60
2021/12/10 04:10:37;;;;;;;7.63;4.67;;;;;;;1.13;100.00;98255.59;5001674;28;20325;-60
2021/12/10 04:13:03;;;;;;;7.73;5.00;;;;;;;0.93;100.00;98251.41;4994712;28;20178;-60
2021/12/10 04:15:28;;;;;;;9.17;5.30;;;;;;;0.76;100.00;98262.31;5001928;28;20235;-61
2021/12/10 04:17:55;;;;;;;9.27;5.40;;;;;;;0.78;100.00;98261.34;4990104;28;20195;-61
2021/12/10 04:20:23;;;;;;;11.83;5.97;;;;;;;0.92;100.00;98249.78;4965473;28;20529;-60
2021/12/10 04:22:49;;;;;;;10.87;5.53;;;;;;;0.83;100.00;98235.00;4985440;28;20301;-61
2021/12/10 04:25:18;;;;;;;9.53;5.40;;;;;;;0.73;100.00;98237.09;4973379;28;20183;-61
2021/12/10 04:27:44;;;;;;;10.90;5.60;;;;;;;0.60;100.00;98232.59;4973171;28;20179;-61
2021/12/10 04:30:12;;;;;;;8.73;5.00;;;;;;;0.51;100.00;98230.47;4943706;28;20180;-60
2021/12/10 04:32:38;;;;;;;14.80;6.03;;;;;;;0.49;100.00;98232.22;4986204;28;20186;-60
2021/12/10 04:35:06;;;;;;;11.53;4.93;;;;;;;0.61;100.00;98223.31;4973101;28;20671;-61
2021/12/10 04:37:32;;;;;;;13.07;5.53;;;;;;;0.46;100.00;98218.00;4972983;28;20172;-61
2021/12/10 04:40:01;;;;;;;13.07;5.17;;;;;;;0.38;100.00;98214.19;4972597;28;20183;-60
2021/12/10 04:42:27;;;;;;;12.43;4.97;;;;;;;0.38;100.00;98209.13;4961415;28;20637;-61
2021/12/10 04:44:56;;;;;;;13.47;5.40;;;;;;;0.24;100.00;98208.00;4972370;28;20343;-61
2021/12/10 04:47:22;;;;;;;11.67;4.87;;;;;;;0.15;100.00;98204.16;4972629;28;20259;-60
2021/12/10 04:49:48;;;;;;;14.43;5.13;;;;;;;0.34;100.00;98200.84;4972461;28;20179;-61
2021/12/10 04:52:13;;;;;;;7.03;4.37;;;;;;;0.24;100.00;98197.88;4977573;28;20227;-60
2021/12/10 04:54:39;;;;;;;13.13;5.80;;;;;;;0.10;100.00;98195.09;4972638;28;20175;-61
2021/12/10 04:57:05;;;;;;;8.50;5.10;;;;;;;0.16;100.00;98192.31;4972475;28;20557;-62
2021/12/10 04:59:33;;;;;;;9.33;4.97;;;;;;;0.19;100.00;98178.72;5001416;28;20181;-61
2021/12/10 05:02:00;;;;;;;13.93;5.60;;;;;;;0.28;100.00;98179.16;5000141;28;20326;-61
2021/12/10 05:04:27;;;;;;;11.63;4.97;;;;;;;0.23;100.00;98175.19;5011251;28;20667;-61
2021/12/10 05:06:53;;;;;;;9.20;5.07;;;;;;;0.17;100.00;98170.41;5011324;28;20174;-61
2021/12/10 05:09:20;;;;;;;13.83;5.03;;;;;;;0.19;100.00;98164.38;5011174;28;20962;-62
2021/12/10 05:11:46;;;;;;;10.20;5.10;;;;;;;0.20;100.00;98152.56;5000123;28;20237;-62
2021/12/10 05:14:11;;;;;;;15.30;5.83;;;;;;;0.20;100.00;98152.56;5011231;28;20179;-61
2021/12/10 05:16:42;;;;;;;13.27;4.97;;;;;;;-0.03;100.00;98152.66;5007344;28;20522;-61
2021/12/10 05:19:09;;;;;;;9.07;5.17;;;;;;;0.09;100.00;98146.25;4991434;28;20179;-61
2021/12/10 05:21:36;;;;;;;13.40;5.07;;;;;;;0.06;100.00;98133.75;4980601;28;20235;-61
2021/12/10 05:24:03;;;;;;;13.27;5.80;;;;;;;0.06;100.00;98138.78;4991231;28;20183;-61
2021/12/10 05:26:30;;;;;;;9.53;5.23;;;;;;;0.13;100.00;98129.25;4991386;28;20186;-60
2021/12/10 05:28:56;;;;;;;10.70;4.67;;;;;;;0.03;100.00;98126.31;4991448;28;20199;-61
2021/12/10 05:31:22;;;;;;;13.37;5.30;;;;;;;-0.03;100.00;98124.03;4980392;28;20246;-61
2021/12/10 05:33:48;;;;;;;6.37;4.50;;;;;;;-0.01;100.00;98112.16;4991091;28;20255;-61
2021/12/10 05:36:13;;;;;;;14.27;5.20;;;;;;;-0.12;100.00;98111.81;4991368;28;20189;-60
2021/12/10 05:38:38;;;;;;;7.50;4.67;;;;;;;-0.21;100.00;98106.25;4991233;28;20590;-60
2021/12/10 05:41:06;;;;;;;11.47;4.97;;;;;;;-0.15;100.00;98100.09;4980354;28;20253;-59
2021/12/10 05:43:35;;;;;;;16.30;5.83;;;;;;;-0.15;100.00;98086.66;4990887;28;20171;-60
2021/12/10 05:46:01;;;;;;;10.73;4.63;;;;;;;-0.26;100.00;98093.00;4991398;28;20551;-60
2021/12/10 05:48:28;;;;;;;11.73;4.57;;;;;;;-0.17;100.00;98092.59;4991324;28;20183;-60
2021/12/10 05:50:55;;;;;;;8.70;4.23;;;;;;;-0.17;100.00;98086.72;4980602;28;20245;-61
2021/12/10 05:53:21;;;;;;;17.67;4.80;;;;;;;-0.18;100.00;98098.53;4991423;28;20540;-60
2021/12/10 05:55:47;;;;;;;10.47;4.37;;;;;;;-0.23;100.00;98080.22;4992469;28;20184;-59
2021/12/10 05:58:13;;;;;;;10.57;4.37;;;;;;;-0.13;100.00;98077.31;4999799;28;20374;-59
2021/12/10 06:00:45;;;;;;;10.97;4.90;;;;;;;-0.26;100.00;98074.47;5004197;28;20238;-59
2021/12/10 06:03:11;;;;;;;8.90;4.63;;;;;;;-0.24;100.00;98068.47;5014270;28;20206;-59
2021/12/10 06:05:38;;;;;;;15.83;5.00;;;;;;;-0.30;100.00;98056.09;5014513;28;20206;-59
2021/12/10 06:08:04;;;;;;;9.77;4.13;;;;;;;-0.26;100.00;98052.56;5014725;28;20242;-60
2021/12/10 06:10:31;;;;;;;10.90;5.23;;;;;;;-0.23;100.00;98049.91;5003707;28;20334;-60
2021/12/10 06:12:57;;;;;;;12.13;5.00;;;;;;;-0.29;100.00;98051.88;5013714;28;20697;-60
2021/12/10 06:15:27;;;;;;;6.97;4.40;;;;;;;-0.22;100.00;98046.47;5014424;28;20174;-60
2021/12/10 06:17:53;;;;;;;10.47;4.90;;;;;;;-0.35;100.00;98048.72;5000404;28;20183;-60
2021/12/10 06:20:23;;;;;;;12.67;5.53;;;;;;;-0.40;100.00;98049.81;4984310;28;20233;-60
2021/12/10 06:22:49;;;;;;;9.97;5.63;;;;;;;-0.37;100.00;98042.09;4993802;28;20295;-58
2021/12/10 06:25:16;;;;;;;9.90;5.10;;;;;;;-0.30;100.00;98040.94;4990352;28;20198;-59
2021/12/10 06:27:44;;;;;;;8.73;4.67;;;;;;;-0.25;100.00;98036.53;4990884;28;20179;-59
2021/12/10 06:30:17;;;;;;;5.97;4.40;;;;;;;-0.27;100.00;98029.88;4981248;28;20186;-60
2021/12/10 06:32:44;;;;;;;8.30;4.57;;;;;;;-0.23;100.00;98026.34;4997758;28;20183;-60
2021/12/10 06:35:11;;;;;;;7.57;4.33;;;;;;;-0.22;100.00;98020.41;4993481;28;20187;-60
2021/12/10 06:37:38;;;;;;;15.67;5.33;;;;;;;-0.25;100.00;98012.94;4986574;28;20271;-60
2021/12/10 06:40:07;;;;;;;8.63;4.63;;;;;;;-0.37;100.00;98011.78;4981129;28;20232;-60
2021/12/10 06:42:32;;;;;;;10.80;5.07;;;;;;;-0.45;100.00;98006.25;4985947;28;20221;-60
2021/12/10 06:44:58;;;;;;;10.00;4.40;;;;;;;-0.42;100.00;98016.19;4992171;28;20183;-61
2021/12/10 06:47:23;;;;;;;9.23;5.00;;;;;;;-0.45;100.00;98009.56;4988360;28;20184;-60
2021/12/10 06:49:48;;;;;;;7.77;4.40;;;;;;;-0.50;100.00;98004.75;4976494;28;20183;-60
2021/12/10 06:52:14;;;;;;;8.47;4.57;;;;;;;-0.50;100.00;97994.63;4975652;28;20284;-60
2021/12/10 06:54:40;;;;;;;12.93;4.80;;;;;;;-0.55;100.00;97988.13;4986160;28;20543;-60
2021/12/10 06:57:05;;;;;;;11.43;5.10;;;;;;;-0.54;100.00;97977.16;4986298;28;20199;-61
2021/12/10 06:59:31;;;;;;;14.33;6.17;;;;;;;-0.59;100.00;97974.81;4993943;28;20184;-60
2021/12/10 07:01:56;;;;;;;9.17;5.67;;;;;;;-0.55;100.00;97973.78;4977838;28;20231;-60
2021/12/10 07:04:22;;;;;;;9.00;4.90;;;;;;;-0.56;100.00;97976.38;4984915;28;20245;-60
2021/12/10 07:06:49;;;;;;;14.97;5.27;;;;;;;-0.56;100.00;97974.69;4993115;28;21480;-60
2021/12/10 07:09:23;;;;;;;9.90;4.97;;;;;;;-0.59;100.00;97984.13;4990138;28;20179;-60
2021/12/10 07:11:51;;;;;;;11.93;5.73;;;;;;;-0.57;100.00;97975.59;4971282;28;20254;-60
2021/12/10 07:14:17;;;;;;;8.83;4.93;;;;;;;-0.63;100.00;97977.53;4973453;28;20247;-60
2021/12/10 07:16:44;;;;;;;10.73;5.43;;;;;;;-0.58;100.00;97978.16;4977691;28;20197;-60
2021/12/10 07:19:10;;;;;;;11.90;5.33;;;;;;;-0.63;100.00;97968.28;4976042;28;20263;-59
2021/12/10 07:21:36;;;;;;;12.93;6.40;;;;;;;-0.62;100.00;97974.97;4965227;28;20307;-59
2021/12/10 07:24:05;;;;;;;9.50;4.80;;;;;;;-0.59;100.00;97967.25;4977414;28;20726;-60
2021/12/10 07:26:31;;;;;;;10.03;4.93;;;;;;;-0.63;100.00;97969.97;4973433;28;20188;-60
2021/12/10 07:28:57;;;;;;;13.47;4.80;;;;;;;-0.67;100.00;97972.63;4973320;28;20656;-60
2021/12/10 07:31:23;;;;;;;9.17;5.57;;;;;;;-0.68;100.00;97967.66;4974640;28;20255;-60
2021/12/10 07:33:48;;;;;;;12.17;5.57;;;;;;;-0.62;100.00;97976.66;4992035;28;20555;-60
2021/12/10 07:36:15;;;;;;;28.97;13.47;;;;;;;-0.60;100.00;97965.59;4989068;28;20211;-61
2021/12/10 07:38:41;;;;;;;12.90;6.23;;;;;;;-0.51;100.00;97960.16;4987543;28;20715;-60
2021/12/10 07:41:07;;;;;;;14.67;5.10;;;;;;;-0.54;100.00;97960.28;4977964;28;20242;-61
2021/12/10 07:43:33;;;;;;;9.30;5.37;;;;;;;-0.37;100.00;97964.59;4992893;28;20552;-60
2021/12/10 07:45:58;;;;;;;8.77;4.87;;;;;;;-0.21;100.00;97959.69;4997067;28;20242;-60
2021/12/10 07:48:26;;;;;;;12.97;5.47;;;;;;;-0.08;100.00;97962.47;4991070;28;20221;-60
2021/12/10 07:50:58;;;;;;;9.57;5.77;;;;;;;0.01;100.00;97961.22;4972557;28;20234;-61
2021/12/10 07:53:25;;;;;;;11.97;5.97;;;;;;;0.13;100.00;97955.59;5000594;28;20266;-60
2021/12/10 07:55:51;;;;;;;11.47;6.23;;;;;;;0.23;100.00;97953.47;5013707;28;20185;-61
2021/12/10 07:58:17;;;;;;;10.33;5.83;;;;;;;0.17;100.00;97948.69;5012537;28;20178;-60
2021/12/10 08:00:45;;;;;;;12.57;5.83;;;;;;;0.21;100.00;97947.69;4991592;28;20206;-60
2021/12/10 08:03:10;;;;;;;13.30;7.00;;;;;;;0.62;100.00;97939.00;5010448;28;20450;-61
2021/12/10 08:05:38;;;;;;;10.53;4.97;;;;;;;0.44;100.00;97945.78;5012306;28;20180;-61
2021/12/10 08:08:06;;;;;;;13.00;5.27;;;;;;;0.46;100.00;97946.53;5012488;28;20179;-60
2021/12/10 08:10:33;;;;;;;13.87;5.10;;;;;;;0.54;100.00;97939.38;5002241;28;20261;-60
2021/12/10 08:12:59;;;;;;;8.17;4.93;;;;;;;0.54;100.00;97941.91;5011424;28;20171;-60
2021/12/10 08:15:25;;;;;;;8.60;5.20;;;;;;;0.73;100.00;97934.25;5002361;28;20230;-60
2021/12/10 08:17:50;;;;;;;10.23;5.37;;;;;;;0.71;100.00;97932.66;4991106;28;20547;-60
2021/12/10 08:20:19;;;;;;;9.70;4.67;;;;;;;0.71;100.00;97925.06;4964146;28;20176;-60
2021/12/10 08:22:45;;;;;;;8.03;5.13;;;;;;;0.36;100.00;97927.59;4986100;28;20283;-60
2021/12/10 08:25:11;;;;;;;14.17;4.13;;;;;;;0.38;100.00;97919.06;4973277;28;20184;-60
2021/12/10 08:27:38;;;;;;;11.87;5.70;;;;;;;0.51;100.00;97921.00;4987984;28;20650;-60
2021/12/10 08:30:05;;;;;;;9.37;4.33;;;;;;;0.72;100.00;97921.66;4976605;28;20754;-60
2021/12/10 08:32:31;;;;;;;11.93;4.37;;;;;;;0.57;100.00;97919.00;4948514;28;20224;-60
2021/12/10 08:34:58;;;;;;;11.00;5.17;;;;;;;0.77;100.00;97924.78;4972635;28;20433;-60
2021/12/10 08:37:24;;;;;;;16.43;4.83;;;;;;;0.86;100.00;97923.53;4972850;28;20176;-60
2021/12/10 08:39:50;;;;;;;10.30;4.50;;;;;;;1.05;100.00;97928.47;4972372;28;20172;-60
2021/12/10 08:42:16;;;;;;;10.73;4.37;;;;;;;1.25;100.00;97933.34;4981151;28;20588;-60
2021/12/10 08:44:42;;;;;;;9.33;4.60;;;;;;;1.34;100.00;97933.75;5008919;28;20345;-61
2021/12/10 08:47:09;;;;;;;16.83;5.40;;;;;;;1.28;100.00;97933.19;4972754;28;20212;-61
2021/12/10 08:49:35;;;;;;;10.73;4.27;;;;;;;1.19;100.00;97923.53;4990026;28;20660;-60
2021/12/10 08:52:02;;;;;;;11.27;3.80;;;;;;;0.99;100.00;97928.78;4990387;28;20265;-60
2021/12/10 08:54:29;;;;;;;8.53;3.63;;;;;;;1.04;100.00;97932.72;4992070;28;20175;-60
2021/12/10 08:56:56;;;;;;;10.67;3.83;;;;;;;1.02;100.00;97926.06;4991911;28;20249;-60
2021/12/10 08:59:24;;;;;;;6.37;3.73;;;;;;;1.04;100.00;97925.13;4978620;28;20226;-60
2021/12/10 09:01:53;;;;;;;6.63;3.57;;;;;;;1.17;99.96;97927.84;4961934;28;20227;-60
2021/12/10 09:04:19;;;;;;;7.27;3.87;;;;;;;1.45;99.77;97927.25;4972327;28;20176;-60
2021/12/10 09:06:50;;;;;;;10.33;4.50;;;;;;;1.63;97.71;97918.78;4980459;28;20188;-60
2021/12/10 09:09:18;;;;;;;11.17;4.07;;;;;;;1.79;95.81;97917.03;4990848;28;20537;-60
2021/12/10 09:11:48;;;;;;;11.50;6.53;;;;;;;1.65;94.58;97904.28;4976940;28;20225;-60
2021/12/10 09:14:16;;;;;;;6.70;4.00;;;;;;;1.83;93.77;97902.50;4986985;28;20674;-60
2021/12/10 09:16:42;;;;;;;11.70;4.67;;;;;;;1.86;93.74;97905.69;4995349;28;20179;-60
2021/12/10 09:19:12;;;;;;;6.97;4.47;;;;;;;1.75;92.90;97906.25;4980149;28;20215;-60
2021/12/10 09:21:40;;;;;;;7.60;3.70;;;;;;;1.71;91.97;97891.28;4961527;28;20233;-61
2021/12/10 09:24:07;;;;;;;11.47;4.13;;;;;;;1.63;92.70;97894.25;4972323;28;20640;-60
2021/12/10 09:26:36;;;;;;;11.33;4.20;;;;;;;1.41;93.49;97899.63;4973049;28;20182;-60
2021/12/10 09:29:06;;;;;;;8.37;4.37;;;;;;;1.32;94.60;97892.50;4972243;28;20275;-61
2021/12/10 09:31:33;;;;;;;6.30;4.13;;;;;;;1.39;94.67;97884.50;4961234;28;20247;-61
2021/12/10 09:34:01;;;;;;;10.10;4.43;;;;;;;1.37;95.05;97883.75;4971900;28;20180;-61
2021/12/10 09:36:28;;;;;;;9.60;4.33;;;;;;;1.30;95.66;97877.38;4972439;28;20176;-59
2021/12/10 09:38:54;;;;;;;8.13;4.50;;;;;;;1.21;96.26;97876.13;4971975;28;20540;-59
2021/12/10 09:41:22;;;;;;;9.38;5.32;;;;;;;1.51;95.79;97867.81;4965212;28;20476;-60
2021/12/10 09:43:47;;;;;;;9.13;4.53;;;;;;;1.47;96.14;97871.44;5004130;28;20180;-59
2021/12/10 09:46:13;;;;;;;9.37;6.97;;;;;;;1.23;96.66;97865.94;4990855;28;20180;-59
2021/12/10 09:48:40;;;;;;;8.53;5.10;;;;;;;1.19;97.86;97851.78;4989247;28;20182;-59
2021/12/10 09:51:10;;;;;;;8.73;4.67;;;;;;;1.23;98.44;97849.03;4977725;28;20224;-59
2021/12/10 09:53:40;;;;;;;10.23;5.00;;;;;;;1.38;97.86;97837.25;4984023;28;20556;-59
2021/12/10 09:56:06;;;;;;;12.63;5.17;;;;;;;1.25;98.22;97837.09;4987706;28;20222;-59
2021/12/10 09:58:32;;;;;;;11.70;4.80;;;;;;;1.16;97.54;97829.97;4989349;28;20257;-59
2021/12/10 10:01:04;;;;;;;9.80;5.93;;;;;;;1.32;97.69;97834.25;4972635;28;20232;-59
2021/12/10 10:03:33;;;;;;;10.20;4.73;;;;;;;1.35;97.36;97827.28;4986512;28;20215;-60
2021/12/10 10:05:59;;;;;;;10.37;5.43;;;;;;;1.45;95.58;97817.47;4990983;28;20672;-60
2021/12/10 10:08:25;;;;;;;9.53;4.17;;;;;;;1.76;93.65;97811.56;4991990;28;20183;-60
2021/12/10 10:10:55;;;;;;;11.47;5.20;;;;;;;1.69;92.69;97817.06;4984120;28;20229;-60
2021/12/10 10:13:25;;;;;;;10.73;4.43;;;;;;;1.83;92.68;97808.69;4990996;28;20168;-60
2021/12/10 10:15:53;;;;;;;8.53;4.77;;;;;;;1.69;90.99;97812.00;4992855;28;20564;-60
2021/12/10 10:18:20;;;;;;;10.07;4.47;;;;;;;1.97;91.38;97805.38;4972321;28;20191;-60
2021/12/10 10:20:50;;;;;;;9.17;4.67;;;;;;;1.83;89.59;97801.09;4977043;28;20235;-60
2021/12/10 10:23:15;;;;;;;12.47;3.97;;;;;;;1.67;88.46;97801.13;4987381;28;20262;-60
2021/12/10 10:25:45;;;;;;;9.17;3.73;;;;;;;1.80;88.11;97803.78;4991892;28;20185;-60
2021/12/10 10:28:12;;;;;;;9.53;4.00;;;;;;;1.73;87.32;97803.31;4989620;28;20244;-60
2021/12/10 10:30:42;;;;;;;6.70;3.53;;;;;;;1.90;87.89;97803.19;4977408;28;20239;-60
2021/12/10 10:33:09;;;;;;;7.37;3.53;;;;;;;2.32;87.55;97798.31;4983443;28;20177;-60
2021/12/10 10:35:42;;;;;;;10.93;3.57;;;;;;;2.45;84.87;97792.53;4991902;28;20175;-60
2021/12/10 10:38:09;;;;;;;5.83;3.47;;;;;;;2.36;83.21;97797.22;4984213;28;20188;-60
2021/12/10 10:40:40;;;;;;;5.80;3.47;;;;;;;2.31;82.53;97793.31;4980434;28;20650;-60
2021/12/10 10:43:07;;;;;;;5.23;3.10;;;;;;;2.06;82.67;97797.25;4978845;28;20234;-60
2021/12/10 10:45:36;;;;;;;8.20;3.60;;;;;;;2.12;83.96;97791.03;4988286;28;20546;-60
2021/12/10 10:48:03;;;;;;;6.10;3.60;;;;;;;1.93;83.78;97789.53;4994183;28;20184;-60
2021/12/10 10:50:34;;;;;;;5.37;3.03;;;;;;;1.98;84.03;97794.34;4983563;28;20287;-60
2021/12/10 10:53:08;;;;;;;6.07;3.10;;;;;;;2.02;83.55;97791.56;4981661;28;20561;-60
2021/12/10 10:55:38;;;;;;;5.33;3.37;;;;;;;2.14;84.33;97794.28;4990258;28;20242;-60
2021/12/10 10:58:13;;;;;;;7.27;3.70;;;;;;;1.98;83.59;97792.63;4994423;28;20208;-60
2021/12/10 11:00:51;;;;;;;10.80;3.97;;;;;;;2.16;83.17;97784.84;4985066;28;20338;-60
2021/12/10 11:03:22;;;;;;;5.60;3.57;;;;;;;1.99;83.14;97801.06;4993830;28;20205;-60
2021/12/10 11:05:57;;;;;;;5.33;3.37;;;;;;;2.27;82.81;97787.63;4995116;28;20178;-60
2021/12/10 11:08:32;;;;;;;9.80;3.57;;;;;;;2.31;80.94;97786.53;4986905;28;20212;-60
2021/12/10 11:11:15;;;;;;;7.47;3.30;;;;;;;2.12;81.84;97781.69;4978521;28;20239;-60
2021/12/10 11:13:45;;;;;;;6.30;3.33;;;;;;;2.48;81.06;97784.72;4983171;28;20260;-61
2021/12/10 11:16:15;;;;;;;6.97;3.03;;;;;;;2.56;79.83;97787.63;4993203;28;20173;-60
2021/12/10 11:18:43;;;;;;;8.30;4.13;;;;;;;2.77;78.47;97788.09;4991304;28;20181;-61
2021/12/10 11:21:10;;;;;;;13.33;3.30;;;;;;;2.99;78.93;97774.09;4974693;28;20221;-60
2021/12/10 11:23:38;;;;;;;6.83;3.07;;;;;;;3.09;77.54;97782.78;4986772;28;20218;-61
2021/12/10 11:26:04;;;;;;;6.17;2.77;;;;;;;3.14;77.25;97787.56;4992197;28;20186;-60
2021/12/10 11:28:32;;;;;;;5.83;2.97;;;;;;;3.05;76.26;97779.63;4993708;28;20258;-61
2021/12/10 11:31:18;;;;;;;5.13;2.97;;;;;;;3.21;76.35;97782.03;4990502;28;20233;-60
2021/12/10 11:33:49;;;;;;;9.57;3.73;;;;;;;3.47;76.52;97786.41;4999137;28;20554;-61
2021/12/10 11:36:18;;;;;;;7.93;3.10;;;;;;;2.78;76.89;97787.19;4993649;28;20686;-61
2021/12/10 11:38:46;;;;;;;6.57;3.20;;;;;;;2.63;77.92;97776.22;4984256;28;20226;-60
2021/12/10 11:41:15;;;;;;;8.33;3.70;;;;;;;2.68;77.98;97778.47;4983715;28;20354;-61
2021/12/10 11:44:07;;;;;;;6.50;3.40;;;;;;;2.68;77.84;97775.94;4993705;28;20191;-60
2021/12/10 11:49:27;;;;;;;4.03;3.20;;;;;;;3.10;77.19;97778.53;4993177;28;20541;-61